<?xml version="1.0" encoding="UTF-8" standalone="no" ?>
<gpx xmlns="http://www.topografix.com/GPX/1/1" xmlns:xsi="http://www.w3.org/2001/XMLSchema-instance" xsi:schemaLocation="http://www.topografix.com/GPX/1/1 http://www.topografix.com/GPX/1/1/gpx.xsd" version="1.1" creator="VisuGPX - https://www.visugpx.com">
  <metadata>
    <name>83 - V - Lorgues </name>
    <desc><![CDATA[83 - V - Lorgues : St Honorat - St Ferréol - sentier découverte 2023-11-10]]></desc>
  </metadata>
  <trk>
    <name><![CDATA[Lorgues St Honorat St Ferréol sentier découverte 10112023]]></name>
    <desc><![CDATA[comment ...]]></desc>
    <trkseg>
      <trkpt lat="43.49269" lon="6.36814">
        <ele>200</ele>
        <time>2023-11-10T12:21:23Z</time>
      </trkpt>
      <trkpt lat="43.4926" lon="6.36829">
        <ele>196</ele>
        <time>2023-11-10T12:21:35Z</time>
      </trkpt>
      <trkpt lat="43.49246" lon="6.36848">
        <ele>192</ele>
        <time>2023-11-10T12:21:53Z</time>
      </trkpt>
      <trkpt lat="43.49246" lon="6.36854">
        <ele>192</ele>
        <time>2023-11-10T12:25:00Z</time>
      </trkpt>
      <trkpt lat="43.49248" lon="6.3685">
        <ele>192</ele>
        <time>2023-11-10T12:31:14Z</time>
      </trkpt>
      <trkpt lat="43.49249" lon="6.36843">
        <ele>192</ele>
        <time>2023-11-10T12:31:23Z</time>
      </trkpt>
      <trkpt lat="43.49262" lon="6.36817">
        <ele>193</ele>
        <time>2023-11-10T12:31:50Z</time>
      </trkpt>
      <trkpt lat="43.49265" lon="6.36813">
        <ele>193</ele>
        <time>2023-11-10T12:31:56Z</time>
      </trkpt>
      <trkpt lat="43.49269" lon="6.36814">
        <ele>196.5</ele>
        <time>2023-11-10T12:32:03Z</time>
      </trkpt>
      <trkpt lat="43.49286" lon="6.36804">
        <ele>193</ele>
        <time>2023-11-10T12:32:25Z</time>
      </trkpt>
      <trkpt lat="43.49299" lon="6.368">
        <ele>198</ele>
        <time>2023-11-10T12:32:44Z</time>
      </trkpt>
      <trkpt lat="43.49304" lon="6.36799">
        <ele>198</ele>
        <time>2023-11-10T12:32:50Z</time>
      </trkpt>
      <trkpt lat="43.49315" lon="6.36796">
        <ele>201</ele>
        <time>2023-11-10T12:32:58Z</time>
      </trkpt>
      <trkpt lat="43.49329" lon="6.36791">
        <ele>208</ele>
        <time>2023-11-10T12:33:10Z</time>
      </trkpt>
      <trkpt lat="43.49337" lon="6.36785">
        <ele>211</ele>
        <time>2023-11-10T12:33:21Z</time>
      </trkpt>
      <trkpt lat="43.49342" lon="6.36785">
        <ele>211</ele>
        <time>2023-11-10T12:33:26Z</time>
      </trkpt>
      <trkpt lat="43.49347" lon="6.36786">
        <ele>210</ele>
        <time>2023-11-10T12:33:30Z</time>
      </trkpt>
      <trkpt lat="43.4935" lon="6.36791">
        <ele>209</ele>
        <time>2023-11-10T12:33:35Z</time>
      </trkpt>
      <trkpt lat="43.49386" lon="6.36775">
        <ele>207</ele>
        <time>2023-11-10T12:34:07Z</time>
      </trkpt>
      <trkpt lat="43.4939" lon="6.36774">
        <ele>208</ele>
        <time>2023-11-10T12:34:12Z</time>
      </trkpt>
      <trkpt lat="43.49395" lon="6.3677">
        <ele>209</ele>
        <time>2023-11-10T12:34:17Z</time>
      </trkpt>
      <trkpt lat="43.49408" lon="6.36767">
        <ele>207</ele>
        <time>2023-11-10T12:34:29Z</time>
      </trkpt>
      <trkpt lat="43.49412" lon="6.36765">
        <ele>207</ele>
        <time>2023-11-10T12:34:33Z</time>
      </trkpt>
      <trkpt lat="43.49421" lon="6.3676">
        <ele>209</ele>
        <time>2023-11-10T12:34:41Z</time>
      </trkpt>
      <trkpt lat="43.49426" lon="6.36759">
        <ele>211</ele>
        <time>2023-11-10T12:34:45Z</time>
      </trkpt>
      <trkpt lat="43.4944" lon="6.36756">
        <ele>215</ele>
        <time>2023-11-10T12:34:57Z</time>
      </trkpt>
      <trkpt lat="43.49474" lon="6.36746">
        <ele>214</ele>
        <time>2023-11-10T12:35:31Z</time>
      </trkpt>
      <trkpt lat="43.49506" lon="6.36733">
        <ele>211</ele>
        <time>2023-11-10T12:36:02Z</time>
      </trkpt>
      <trkpt lat="43.49515" lon="6.3673">
        <ele>213</ele>
        <time>2023-11-10T12:36:12Z</time>
      </trkpt>
      <trkpt lat="43.4952" lon="6.36729">
        <ele>213</ele>
        <time>2023-11-10T12:36:17Z</time>
      </trkpt>
      <trkpt lat="43.49529" lon="6.36725">
        <ele>213</ele>
        <time>2023-11-10T12:36:26Z</time>
      </trkpt>
      <trkpt lat="43.49538" lon="6.3672">
        <ele>214</ele>
        <time>2023-11-10T12:36:34Z</time>
      </trkpt>
      <trkpt lat="43.49552" lon="6.36719">
        <ele>215</ele>
        <time>2023-11-10T12:36:47Z</time>
      </trkpt>
      <trkpt lat="43.49585" lon="6.36708">
        <ele>223</ele>
        <time>2023-11-10T12:37:19Z</time>
      </trkpt>
      <trkpt lat="43.49618" lon="6.36696">
        <ele>236</ele>
        <time>2023-11-10T12:37:52Z</time>
      </trkpt>
      <trkpt lat="43.49632" lon="6.36692">
        <ele>229</ele>
        <time>2023-11-10T12:38:06Z</time>
      </trkpt>
      <trkpt lat="43.49641" lon="6.36693">
        <ele>229</ele>
        <time>2023-11-10T12:38:14Z</time>
      </trkpt>
      <trkpt lat="43.49664" lon="6.36683">
        <ele>227</ele>
        <time>2023-11-10T12:38:37Z</time>
      </trkpt>
      <trkpt lat="43.49668" lon="6.36682">
        <ele>225</ele>
        <time>2023-11-10T12:38:41Z</time>
      </trkpt>
      <trkpt lat="43.49674" lon="6.36684">
        <ele>223</ele>
        <time>2023-11-10T12:38:46Z</time>
      </trkpt>
      <trkpt lat="43.49682" lon="6.36678">
        <ele>225</ele>
        <time>2023-11-10T12:38:54Z</time>
      </trkpt>
      <trkpt lat="43.49686" lon="6.36675">
        <ele>228</ele>
        <time>2023-11-10T12:38:58Z</time>
      </trkpt>
      <trkpt lat="43.49691" lon="6.36673">
        <ele>229</ele>
        <time>2023-11-10T12:39:02Z</time>
      </trkpt>
      <trkpt lat="43.49702" lon="6.36669">
        <ele>233</ele>
        <time>2023-11-10T12:39:13Z</time>
      </trkpt>
      <trkpt lat="43.49717" lon="6.36667">
        <ele>230</ele>
        <time>2023-11-10T12:39:27Z</time>
      </trkpt>
      <trkpt lat="43.49751" lon="6.36659">
        <ele>223</ele>
        <time>2023-11-10T12:40:00Z</time>
      </trkpt>
      <trkpt lat="43.49756" lon="6.36658">
        <ele>223</ele>
        <time>2023-11-10T12:40:06Z</time>
      </trkpt>
      <trkpt lat="43.49759" lon="6.36654">
        <ele>222</ele>
        <time>2023-11-10T12:40:12Z</time>
      </trkpt>
      <trkpt lat="43.49762" lon="6.36649">
        <ele>223</ele>
        <time>2023-11-10T12:40:18Z</time>
      </trkpt>
      <trkpt lat="43.4977" lon="6.36642">
        <ele>220</ele>
        <time>2023-11-10T12:40:29Z</time>
      </trkpt>
      <trkpt lat="43.49773" lon="6.36637">
        <ele>220</ele>
        <time>2023-11-10T12:40:34Z</time>
      </trkpt>
      <trkpt lat="43.49774" lon="6.36631">
        <ele>220</ele>
        <time>2023-11-10T12:40:39Z</time>
      </trkpt>
      <trkpt lat="43.49773" lon="6.36624">
        <ele>221</ele>
        <time>2023-11-10T12:40:44Z</time>
      </trkpt>
      <trkpt lat="43.49775" lon="6.36619">
        <ele>222</ele>
        <time>2023-11-10T12:40:48Z</time>
      </trkpt>
      <trkpt lat="43.49775" lon="6.36613">
        <ele>224</ele>
        <time>2023-11-10T12:40:53Z</time>
      </trkpt>
      <trkpt lat="43.49773" lon="6.36608">
        <ele>225</ele>
        <time>2023-11-10T12:40:57Z</time>
      </trkpt>
      <trkpt lat="43.49767" lon="6.36598">
        <ele>224</ele>
        <time>2023-11-10T12:41:07Z</time>
      </trkpt>
      <trkpt lat="43.49758" lon="6.36584">
        <ele>225</ele>
        <time>2023-11-10T12:41:21Z</time>
      </trkpt>
      <trkpt lat="43.49755" lon="6.3658">
        <ele>225</ele>
        <time>2023-11-10T12:41:26Z</time>
      </trkpt>
      <trkpt lat="43.49753" lon="6.36577">
        <ele>224</ele>
        <time>2023-11-10T12:43:56Z</time>
      </trkpt>
      <trkpt lat="43.4975" lon="6.36572">
        <ele>223</ele>
        <time>2023-11-10T12:44:45Z</time>
      </trkpt>
      <trkpt lat="43.4974" lon="6.36561">
        <ele>216</ele>
        <time>2023-11-10T12:49:49Z</time>
      </trkpt>
      <trkpt lat="43.49737" lon="6.36566">
        <ele>221</ele>
        <time>2023-11-10T12:49:51Z</time>
      </trkpt>
      <trkpt lat="43.49737" lon="6.36573">
        <ele>229</ele>
        <time>2023-11-10T12:50:05Z</time>
      </trkpt>
      <trkpt lat="43.49733" lon="6.36569">
        <ele>227</ele>
        <time>2023-11-10T12:50:26Z</time>
      </trkpt>
      <trkpt lat="43.4973" lon="6.36567">
        <ele>226</ele>
        <time>2023-11-10T12:50:43Z</time>
      </trkpt>
      <trkpt lat="43.49735" lon="6.36564">
        <ele>222</ele>
        <time>2023-11-10T12:56:23Z</time>
      </trkpt>
      <trkpt lat="43.4974" lon="6.36563">
        <ele>224</ele>
        <time>2023-11-10T12:56:27Z</time>
      </trkpt>
      <trkpt lat="43.49745" lon="6.36565">
        <ele>225</ele>
        <time>2023-11-10T12:56:31Z</time>
      </trkpt>
      <trkpt lat="43.49751" lon="6.3657">
        <ele>228</ele>
        <time>2023-11-10T12:56:39Z</time>
      </trkpt>
      <trkpt lat="43.49755" lon="6.36575">
        <ele>226</ele>
        <time>2023-11-10T12:56:43Z</time>
      </trkpt>
      <trkpt lat="43.49758" lon="6.36579">
        <ele>226</ele>
        <time>2023-11-10T12:56:48Z</time>
      </trkpt>
      <trkpt lat="43.49761" lon="6.36585">
        <ele>226</ele>
        <time>2023-11-10T12:57:03Z</time>
      </trkpt>
      <trkpt lat="43.49767" lon="6.36594">
        <ele>227</ele>
        <time>2023-11-10T12:57:18Z</time>
      </trkpt>
      <trkpt lat="43.4977" lon="6.36599">
        <ele>227</ele>
        <time>2023-11-10T12:57:22Z</time>
      </trkpt>
      <trkpt lat="43.49774" lon="6.36603">
        <ele>226</ele>
        <time>2023-11-10T12:57:29Z</time>
      </trkpt>
      <trkpt lat="43.49778" lon="6.36605">
        <ele>226</ele>
        <time>2023-11-10T12:57:33Z</time>
      </trkpt>
      <trkpt lat="43.49781" lon="6.3661">
        <ele>225</ele>
        <time>2023-11-10T12:57:39Z</time>
      </trkpt>
      <trkpt lat="43.49783" lon="6.36615">
        <ele>224</ele>
        <time>2023-11-10T12:57:50Z</time>
      </trkpt>
      <trkpt lat="43.49786" lon="6.3662">
        <ele>224</ele>
        <time>2023-11-10T12:57:59Z</time>
      </trkpt>
      <trkpt lat="43.49789" lon="6.36626">
        <ele>224</ele>
        <time>2023-11-10T12:58:11Z</time>
      </trkpt>
      <trkpt lat="43.4979" lon="6.36635">
        <ele>224</ele>
        <time>2023-11-10T12:58:19Z</time>
      </trkpt>
      <trkpt lat="43.49792" lon="6.36646">
        <ele>223</ele>
        <time>2023-11-10T12:58:27Z</time>
      </trkpt>
      <trkpt lat="43.49795" lon="6.36651">
        <ele>222</ele>
        <time>2023-11-10T12:58:33Z</time>
      </trkpt>
      <trkpt lat="43.49796" lon="6.36661">
        <ele>222</ele>
        <time>2023-11-10T12:58:44Z</time>
      </trkpt>
      <trkpt lat="43.49796" lon="6.36667">
        <ele>222</ele>
        <time>2023-11-10T12:59:00Z</time>
      </trkpt>
      <trkpt lat="43.49795" lon="6.36673">
        <ele>223</ele>
        <time>2023-11-10T13:02:35Z</time>
      </trkpt>
      <trkpt lat="43.49797" lon="6.36678">
        <ele>224</ele>
        <time>2023-11-10T13:03:02Z</time>
      </trkpt>
      <trkpt lat="43.498" lon="6.36685">
        <ele>226</ele>
        <time>2023-11-10T13:03:28Z</time>
      </trkpt>
      <trkpt lat="43.49805" lon="6.36698">
        <ele>228</ele>
        <time>2023-11-10T13:03:41Z</time>
      </trkpt>
      <trkpt lat="43.49806" lon="6.36704">
        <ele>228</ele>
        <time>2023-11-10T13:03:44Z</time>
      </trkpt>
      <trkpt lat="43.49808" lon="6.36716">
        <ele>230</ele>
        <time>2023-11-10T13:06:18Z</time>
      </trkpt>
      <trkpt lat="43.4981" lon="6.36721">
        <ele>231</ele>
        <time>2023-11-10T13:07:29Z</time>
      </trkpt>
      <trkpt lat="43.49823" lon="6.36749">
        <ele>238</ele>
        <time>2023-11-10T13:07:59Z</time>
      </trkpt>
      <trkpt lat="43.49831" lon="6.36762">
        <ele>240</ele>
        <time>2023-11-10T13:08:13Z</time>
      </trkpt>
      <trkpt lat="43.49833" lon="6.36768">
        <ele>243</ele>
        <time>2023-11-10T13:08:17Z</time>
      </trkpt>
      <trkpt lat="43.49836" lon="6.36777">
        <ele>244</ele>
        <time>2023-11-10T13:08:24Z</time>
      </trkpt>
      <trkpt lat="43.49837" lon="6.36784">
        <ele>246</ele>
        <time>2023-11-10T13:08:28Z</time>
      </trkpt>
      <trkpt lat="43.49843" lon="6.36803">
        <ele>248</ele>
        <time>2023-11-10T13:08:52Z</time>
      </trkpt>
      <trkpt lat="43.49845" lon="6.3681">
        <ele>251</ele>
        <time>2023-11-10T13:08:56Z</time>
      </trkpt>
      <trkpt lat="43.49851" lon="6.3683">
        <ele>255</ele>
        <time>2023-11-10T13:09:18Z</time>
      </trkpt>
      <trkpt lat="43.49853" lon="6.36836">
        <ele>257</ele>
        <time>2023-11-10T13:09:33Z</time>
      </trkpt>
      <trkpt lat="43.49855" lon="6.36842">
        <ele>258</ele>
        <time>2023-11-10T13:09:38Z</time>
      </trkpt>
      <trkpt lat="43.49857" lon="6.36848">
        <ele>258</ele>
        <time>2023-11-10T13:09:43Z</time>
      </trkpt>
      <trkpt lat="43.49858" lon="6.36854">
        <ele>259</ele>
        <time>2023-11-10T13:09:53Z</time>
      </trkpt>
      <trkpt lat="43.49861" lon="6.36862">
        <ele>261</ele>
        <time>2023-11-10T13:10:07Z</time>
      </trkpt>
      <trkpt lat="43.49868" lon="6.36883">
        <ele>266</ele>
        <time>2023-11-10T13:10:45Z</time>
      </trkpt>
      <trkpt lat="43.49877" lon="6.36914">
        <ele>269</ele>
        <time>2023-11-10T13:11:38Z</time>
      </trkpt>
      <trkpt lat="43.49885" lon="6.36932">
        <ele>273</ele>
        <time>2023-11-10T13:12:24Z</time>
      </trkpt>
      <trkpt lat="43.49891" lon="6.36943">
        <ele>276</ele>
        <time>2023-11-10T13:12:33Z</time>
      </trkpt>
      <trkpt lat="43.49904" lon="6.3697">
        <ele>284</ele>
        <time>2023-11-10T13:12:51Z</time>
      </trkpt>
      <trkpt lat="43.49905" lon="6.36977">
        <ele>286</ele>
        <time>2023-11-10T13:12:55Z</time>
      </trkpt>
      <trkpt lat="43.49906" lon="6.36985">
        <ele>287</ele>
        <time>2023-11-10T13:12:59Z</time>
      </trkpt>
      <trkpt lat="43.49913" lon="6.37014">
        <ele>290</ele>
        <time>2023-11-10T13:13:20Z</time>
      </trkpt>
      <trkpt lat="43.49914" lon="6.3702">
        <ele>292</ele>
        <time>2023-11-10T13:13:25Z</time>
      </trkpt>
      <trkpt lat="43.49915" lon="6.37026">
        <ele>293</ele>
        <time>2023-11-10T13:13:31Z</time>
      </trkpt>
      <trkpt lat="43.49916" lon="6.37032">
        <ele>294</ele>
        <time>2023-11-10T13:13:45Z</time>
      </trkpt>
      <trkpt lat="43.49916" lon="6.37037">
        <ele>295</ele>
        <time>2023-11-10T13:13:56Z</time>
      </trkpt>
      <trkpt lat="43.49917" lon="6.37043">
        <ele>297</ele>
        <time>2023-11-10T13:14:08Z</time>
      </trkpt>
      <trkpt lat="43.4992" lon="6.37047">
        <ele>297</ele>
        <time>2023-11-10T13:14:26Z</time>
      </trkpt>
      <trkpt lat="43.49922" lon="6.37053">
        <ele>300</ele>
        <time>2023-11-10T13:14:40Z</time>
      </trkpt>
      <trkpt lat="43.49938" lon="6.37067">
        <ele>304</ele>
        <time>2023-11-10T13:15:10Z</time>
      </trkpt>
      <trkpt lat="43.49952" lon="6.37084">
        <ele>306</ele>
        <time>2023-11-10T13:15:48Z</time>
      </trkpt>
      <trkpt lat="43.49955" lon="6.37089">
        <ele>307</ele>
        <time>2023-11-10T13:15:53Z</time>
      </trkpt>
      <trkpt lat="43.49959" lon="6.37101">
        <ele>308</ele>
        <time>2023-11-10T13:16:02Z</time>
      </trkpt>
      <trkpt lat="43.49962" lon="6.37106">
        <ele>309</ele>
        <time>2023-11-10T13:16:10Z</time>
      </trkpt>
      <trkpt lat="43.49965" lon="6.3711">
        <ele>310</ele>
        <time>2023-11-10T13:16:20Z</time>
      </trkpt>
      <trkpt lat="43.49967" lon="6.37115">
        <ele>311</ele>
        <time>2023-11-10T13:16:26Z</time>
      </trkpt>
      <trkpt lat="43.4997" lon="6.37121">
        <ele>312</ele>
        <time>2023-11-10T13:16:39Z</time>
      </trkpt>
      <trkpt lat="43.49971" lon="6.37127">
        <ele>312</ele>
        <time>2023-11-10T13:16:44Z</time>
      </trkpt>
      <trkpt lat="43.49976" lon="6.37139">
        <ele>313</ele>
        <time>2023-11-10T13:17:01Z</time>
      </trkpt>
      <trkpt lat="43.49977" lon="6.37146">
        <ele>317</ele>
        <time>2023-11-10T13:17:05Z</time>
      </trkpt>
      <trkpt lat="43.49979" lon="6.37152">
        <ele>319</ele>
        <time>2023-11-10T13:17:14Z</time>
      </trkpt>
      <trkpt lat="43.49984" lon="6.37148">
        <ele>319</ele>
        <time>2023-11-10T13:17:32Z</time>
      </trkpt>
      <trkpt lat="43.49988" lon="6.37143">
        <ele>320</ele>
        <time>2023-11-10T13:19:49Z</time>
      </trkpt>
      <trkpt lat="43.50001" lon="6.37132">
        <ele>326</ele>
        <time>2023-11-10T13:23:42Z</time>
      </trkpt>
      <trkpt lat="43.49991" lon="6.37134">
        <ele>325</ele>
        <time>2023-11-10T13:24:10Z</time>
      </trkpt>
      <trkpt lat="43.49974" lon="6.37218">
        <ele>262</ele>
        <time>2023-11-10T13:50:14Z</time>
      </trkpt>
      <trkpt lat="43.49966" lon="6.37196">
        <ele>285</ele>
        <time>2023-11-10T13:50:16Z</time>
      </trkpt>
      <trkpt lat="43.49994" lon="6.3723">
        <ele>308</ele>
        <time>2023-11-10T13:50:31Z</time>
      </trkpt>
      <trkpt lat="43.49988" lon="6.37229">
        <ele>317</ele>
        <time>2023-11-10T13:51:10Z</time>
      </trkpt>
      <trkpt lat="43.49982" lon="6.37221">
        <ele>315</ele>
        <time>2023-11-10T13:51:33Z</time>
      </trkpt>
      <trkpt lat="43.49988" lon="6.37251">
        <ele>306</ele>
        <time>2023-11-10T13:52:29Z</time>
      </trkpt>
      <trkpt lat="43.49988" lon="6.37244">
        <ele>299</ele>
        <time>2023-11-10T13:53:18Z</time>
      </trkpt>
      <trkpt lat="43.49988" lon="6.37248">
        <ele>302</ele>
        <time>2023-11-10T13:53:40Z</time>
      </trkpt>
      <trkpt lat="43.49986" lon="6.37225">
        <ele>302</ele>
        <time>2023-11-10T13:53:52Z</time>
      </trkpt>
      <trkpt lat="43.49985" lon="6.37213">
        <ele>306</ele>
        <time>2023-11-10T13:56:43Z</time>
      </trkpt>
      <trkpt lat="43.4998" lon="6.37229">
        <ele>323</ele>
        <time>2023-11-10T13:56:48Z</time>
      </trkpt>
      <trkpt lat="43.4998" lon="6.37231">
        <ele>316</ele>
        <time>2023-11-10T13:58:29Z</time>
      </trkpt>
      <trkpt lat="43.49997" lon="6.37242">
        <ele>309</ele>
        <time>2023-11-10T14:02:27Z</time>
      </trkpt>
      <trkpt lat="43.49993" lon="6.37233">
        <ele>306</ele>
        <time>2023-11-10T14:02:42Z</time>
      </trkpt>
      <trkpt lat="43.49986" lon="6.37226">
        <ele>306</ele>
        <time>2023-11-10T14:02:49Z</time>
      </trkpt>
      <trkpt lat="43.49981" lon="6.37228">
        <ele>308</ele>
        <time>2023-11-10T14:03:03Z</time>
      </trkpt>
      <trkpt lat="43.49981" lon="6.37239">
        <ele>314</ele>
        <time>2023-11-10T14:03:31Z</time>
      </trkpt>
      <trkpt lat="43.49978" lon="6.37211">
        <ele>314</ele>
        <time>2023-11-10T14:04:11Z</time>
      </trkpt>
      <trkpt lat="43.49989" lon="6.37209">
        <ele>312</ele>
        <time>2023-11-10T14:04:28Z</time>
      </trkpt>
      <trkpt lat="43.49982" lon="6.37155">
        <ele>299</ele>
        <time>2023-11-10T14:06:59Z</time>
      </trkpt>
      <trkpt lat="43.49984" lon="6.37148">
        <ele>297</ele>
        <time>2023-11-10T14:07:01Z</time>
      </trkpt>
      <trkpt lat="43.49986" lon="6.37134">
        <ele>302</ele>
        <time>2023-11-10T14:07:21Z</time>
      </trkpt>
      <trkpt lat="43.49982" lon="6.37138">
        <ele>307</ele>
        <time>2023-11-10T14:08:23Z</time>
      </trkpt>
      <trkpt lat="43.4998" lon="6.37143">
        <ele>308</ele>
        <time>2023-11-10T14:08:41Z</time>
      </trkpt>
      <trkpt lat="43.49979" lon="6.37149">
        <ele>309</ele>
        <time>2023-11-10T14:09:32Z</time>
      </trkpt>
      <trkpt lat="43.49974" lon="6.37159">
        <ele>309</ele>
        <time>2023-11-10T14:09:45Z</time>
      </trkpt>
      <trkpt lat="43.49979" lon="6.37159">
        <ele>307</ele>
        <time>2023-11-10T14:12:56Z</time>
      </trkpt>
      <trkpt lat="43.4998" lon="6.37165">
        <ele>307</ele>
        <time>2023-11-10T14:13:41Z</time>
      </trkpt>
      <trkpt lat="43.49978" lon="6.37167">
        <ele>309</ele>
        <time>2023-11-10T14:14:04Z</time>
      </trkpt>
      <trkpt lat="43.49975" lon="6.37158">
        <ele>309</ele>
        <time>2023-11-10T14:14:09Z</time>
      </trkpt>
      <trkpt lat="43.49976" lon="6.37152">
        <ele>311</ele>
        <time>2023-11-10T14:14:14Z</time>
      </trkpt>
      <trkpt lat="43.49977" lon="6.37146">
        <ele>312</ele>
        <time>2023-11-10T14:14:19Z</time>
      </trkpt>
      <trkpt lat="43.49965" lon="6.37123">
        <ele>312</ele>
        <time>2023-11-10T14:14:42Z</time>
      </trkpt>
      <trkpt lat="43.49961" lon="6.3712">
        <ele>312</ele>
        <time>2023-11-10T14:14:45Z</time>
      </trkpt>
      <trkpt lat="43.49959" lon="6.37115">
        <ele>309</ele>
        <time>2023-11-10T14:21:04Z</time>
      </trkpt>
      <trkpt lat="43.49955" lon="6.37113">
        <ele>308</ele>
        <time>2023-11-10T14:21:08Z</time>
      </trkpt>
      <trkpt lat="43.49951" lon="6.37109">
        <ele>308</ele>
        <time>2023-11-10T14:21:13Z</time>
      </trkpt>
      <trkpt lat="43.49935" lon="6.37107">
        <ele>309</ele>
        <time>2023-11-10T14:21:38Z</time>
      </trkpt>
      <trkpt lat="43.49929" lon="6.37106">
        <ele>310</ele>
        <time>2023-11-10T14:21:46Z</time>
      </trkpt>
      <trkpt lat="43.49896" lon="6.37109">
        <ele>310</ele>
        <time>2023-11-10T14:22:18Z</time>
      </trkpt>
      <trkpt lat="43.49885" lon="6.37109">
        <ele>310</ele>
        <time>2023-11-10T14:22:25Z</time>
      </trkpt>
      <trkpt lat="43.49878" lon="6.37111">
        <ele>310</ele>
        <time>2023-11-10T14:22:30Z</time>
      </trkpt>
      <trkpt lat="43.49857" lon="6.37129">
        <ele>308</ele>
        <time>2023-11-10T14:22:57Z</time>
      </trkpt>
      <trkpt lat="43.49855" lon="6.37135">
        <ele>308</ele>
        <time>2023-11-10T14:23:02Z</time>
      </trkpt>
      <trkpt lat="43.49854" lon="6.37154">
        <ele>309</ele>
        <time>2023-11-10T14:23:18Z</time>
      </trkpt>
      <trkpt lat="43.49852" lon="6.37161">
        <ele>310</ele>
        <time>2023-11-10T14:23:24Z</time>
      </trkpt>
      <trkpt lat="43.49841" lon="6.37171">
        <ele>309</ele>
        <time>2023-11-10T14:23:36Z</time>
      </trkpt>
      <trkpt lat="43.49836" lon="6.37176">
        <ele>310</ele>
        <time>2023-11-10T14:23:41Z</time>
      </trkpt>
      <trkpt lat="43.49837" lon="6.37201">
        <ele>311</ele>
        <time>2023-11-10T14:24:04Z</time>
      </trkpt>
      <trkpt lat="43.49834" lon="6.37207">
        <ele>313</ele>
        <time>2023-11-10T14:33:09Z</time>
      </trkpt>
      <trkpt lat="43.49835" lon="6.37214">
        <ele>313</ele>
        <time>2023-11-10T14:33:14Z</time>
      </trkpt>
      <trkpt lat="43.49835" lon="6.37219">
        <ele>313</ele>
        <time>2023-11-10T14:33:26Z</time>
      </trkpt>
      <trkpt lat="43.49834" lon="6.37225">
        <ele>313</ele>
        <time>2023-11-10T14:33:36Z</time>
      </trkpt>
      <trkpt lat="43.49833" lon="6.37231">
        <ele>313</ele>
        <time>2023-11-10T14:33:45Z</time>
      </trkpt>
      <trkpt lat="43.49829" lon="6.37243">
        <ele>313</ele>
        <time>2023-11-10T14:35:10Z</time>
      </trkpt>
      <trkpt lat="43.49829" lon="6.37249">
        <ele>313</ele>
        <time>2023-11-10T14:37:24Z</time>
      </trkpt>
      <trkpt lat="43.49824" lon="6.37251">
        <ele>313</ele>
        <time>2023-11-10T14:37:38Z</time>
      </trkpt>
      <trkpt lat="43.49821" lon="6.37257">
        <ele>319</ele>
        <time>2023-11-10T14:37:45Z</time>
      </trkpt>
      <trkpt lat="43.49813" lon="6.37268">
        <ele>321</ele>
        <time>2023-11-10T14:37:56Z</time>
      </trkpt>
      <trkpt lat="43.49812" lon="6.37275">
        <ele>322</ele>
        <time>2023-11-10T14:40:53Z</time>
      </trkpt>
      <trkpt lat="43.49813" lon="6.37282">
        <ele>321</ele>
        <time>2023-11-10T14:40:59Z</time>
      </trkpt>
      <trkpt lat="43.49814" lon="6.37288">
        <ele>321</ele>
        <time>2023-11-10T14:41:08Z</time>
      </trkpt>
      <trkpt lat="43.49814" lon="6.37294">
        <ele>319</ele>
        <time>2023-11-10T14:41:14Z</time>
      </trkpt>
      <trkpt lat="43.49812" lon="6.37299">
        <ele>319</ele>
        <time>2023-11-10T14:41:20Z</time>
      </trkpt>
      <trkpt lat="43.49811" lon="6.37313">
        <ele>317</ele>
        <time>2023-11-10T14:41:29Z</time>
      </trkpt>
      <trkpt lat="43.49811" lon="6.37321">
        <ele>317</ele>
        <time>2023-11-10T14:42:43Z</time>
      </trkpt>
      <trkpt lat="43.49813" lon="6.37326">
        <ele>317</ele>
        <time>2023-11-10T14:43:32Z</time>
      </trkpt>
      <trkpt lat="43.49814" lon="6.37333">
        <ele>317</ele>
        <time>2023-11-10T14:43:35Z</time>
      </trkpt>
      <trkpt lat="43.49813" lon="6.37347">
        <ele>318</ele>
        <time>2023-11-10T14:43:46Z</time>
      </trkpt>
      <trkpt lat="43.49816" lon="6.37376">
        <ele>321</ele>
        <time>2023-11-10T14:44:05Z</time>
      </trkpt>
      <trkpt lat="43.4982" lon="6.37389">
        <ele>322</ele>
        <time>2023-11-10T14:44:17Z</time>
      </trkpt>
      <trkpt lat="43.4982" lon="6.37401">
        <ele>323</ele>
        <time>2023-11-10T14:44:27Z</time>
      </trkpt>
      <trkpt lat="43.49813" lon="6.37424">
        <ele>322</ele>
        <time>2023-11-10T14:44:46Z</time>
      </trkpt>
      <trkpt lat="43.49813" lon="6.37431">
        <ele>322</ele>
        <time>2023-11-10T14:44:51Z</time>
      </trkpt>
      <trkpt lat="43.49815" lon="6.37437">
        <ele>323</ele>
        <time>2023-11-10T14:44:54Z</time>
      </trkpt>
      <trkpt lat="43.49819" lon="6.37441">
        <ele>322</ele>
        <time>2023-11-10T14:44:58Z</time>
      </trkpt>
      <trkpt lat="43.49825" lon="6.37451">
        <ele>321</ele>
        <time>2023-11-10T14:45:08Z</time>
      </trkpt>
      <trkpt lat="43.49838" lon="6.37459">
        <ele>321</ele>
        <time>2023-11-10T14:45:22Z</time>
      </trkpt>
      <trkpt lat="43.49848" lon="6.3746">
        <ele>322</ele>
        <time>2023-11-10T14:45:30Z</time>
      </trkpt>
      <trkpt lat="43.49853" lon="6.37461">
        <ele>321</ele>
        <time>2023-11-10T14:45:35Z</time>
      </trkpt>
      <trkpt lat="43.49868" lon="6.37477">
        <ele>319</ele>
        <time>2023-11-10T14:45:53Z</time>
      </trkpt>
      <trkpt lat="43.49882" lon="6.37476">
        <ele>318</ele>
        <time>2023-11-10T14:46:08Z</time>
      </trkpt>
      <trkpt lat="43.49887" lon="6.37475">
        <ele>318</ele>
        <time>2023-11-10T14:46:15Z</time>
      </trkpt>
      <trkpt lat="43.49891" lon="6.37474">
        <ele>318</ele>
        <time>2023-11-10T14:46:24Z</time>
      </trkpt>
      <trkpt lat="43.49893" lon="6.37467">
        <ele>318</ele>
        <time>2023-11-10T14:46:30Z</time>
      </trkpt>
      <trkpt lat="43.49893" lon="6.37423">
        <ele>316</ele>
        <time>2023-11-10T14:47:00Z</time>
      </trkpt>
      <trkpt lat="43.49892" lon="6.37417">
        <ele>316</ele>
        <time>2023-11-10T14:47:05Z</time>
      </trkpt>
      <trkpt lat="43.49891" lon="6.37391">
        <ele>316</ele>
        <time>2023-11-10T14:47:25Z</time>
      </trkpt>
      <trkpt lat="43.49894" lon="6.37387">
        <ele>316</ele>
        <time>2023-11-10T14:47:31Z</time>
      </trkpt>
      <trkpt lat="43.49898" lon="6.37391">
        <ele>316</ele>
        <time>2023-11-10T14:47:36Z</time>
      </trkpt>
      <trkpt lat="43.499" lon="6.37397">
        <ele>316</ele>
        <time>2023-11-10T14:47:41Z</time>
      </trkpt>
      <trkpt lat="43.49905" lon="6.37397">
        <ele>316</ele>
        <time>2023-11-10T14:48:01Z</time>
      </trkpt>
      <trkpt lat="43.49907" lon="6.37393">
        <ele>316</ele>
        <time>2023-11-10T14:48:13Z</time>
      </trkpt>
      <trkpt lat="43.49906" lon="6.37374">
        <ele>314</ele>
        <time>2023-11-10T14:48:31Z</time>
      </trkpt>
      <trkpt lat="43.49908" lon="6.37365">
        <ele>314</ele>
        <time>2023-11-10T14:48:35Z</time>
      </trkpt>
      <trkpt lat="43.4991" lon="6.37359">
        <ele>314</ele>
        <time>2023-11-10T14:48:37Z</time>
      </trkpt>
      <trkpt lat="43.49912" lon="6.37353">
        <ele>314</ele>
        <time>2023-11-10T14:48:40Z</time>
      </trkpt>
      <trkpt lat="43.49915" lon="6.37347">
        <ele>314</ele>
        <time>2023-11-10T14:49:01Z</time>
      </trkpt>
      <trkpt lat="43.49924" lon="6.37346">
        <ele>312</ele>
        <time>2023-11-10T14:49:12Z</time>
      </trkpt>
      <trkpt lat="43.49936" lon="6.37344">
        <ele>310</ele>
        <time>2023-11-10T14:49:19Z</time>
      </trkpt>
      <trkpt lat="43.49941" lon="6.37343">
        <ele>310</ele>
        <time>2023-11-10T14:49:25Z</time>
      </trkpt>
      <trkpt lat="43.49959" lon="6.37337">
        <ele>306</ele>
        <time>2023-11-10T14:49:57Z</time>
      </trkpt>
      <trkpt lat="43.49969" lon="6.37337">
        <ele>305</ele>
        <time>2023-11-10T14:50:04Z</time>
      </trkpt>
      <trkpt lat="43.49975" lon="6.37336">
        <ele>304</ele>
        <time>2023-11-10T14:51:48Z</time>
      </trkpt>
      <trkpt lat="43.49985" lon="6.37329">
        <ele>301</ele>
        <time>2023-11-10T14:51:57Z</time>
      </trkpt>
      <trkpt lat="43.49991" lon="6.37327">
        <ele>301</ele>
        <time>2023-11-10T14:52:08Z</time>
      </trkpt>
      <trkpt lat="43.49996" lon="6.37321">
        <ele>298</ele>
        <time>2023-11-10T14:52:11Z</time>
      </trkpt>
      <trkpt lat="43.50004" lon="6.37314">
        <ele>296</ele>
        <time>2023-11-10T14:52:14Z</time>
      </trkpt>
      <trkpt lat="43.50008" lon="6.37311">
        <ele>296</ele>
        <time>2023-11-10T14:52:15Z</time>
      </trkpt>
      <trkpt lat="43.50025" lon="6.37302">
        <ele>294</ele>
        <time>2023-11-10T14:52:23Z</time>
      </trkpt>
      <trkpt lat="43.50031" lon="6.37304">
        <ele>293</ele>
        <time>2023-11-10T14:52:28Z</time>
      </trkpt>
      <trkpt lat="43.50035" lon="6.37305">
        <ele>292</ele>
        <time>2023-11-10T14:52:33Z</time>
      </trkpt>
      <trkpt lat="43.50039" lon="6.37309">
        <ele>290</ele>
        <time>2023-11-10T14:52:39Z</time>
      </trkpt>
      <trkpt lat="43.50044" lon="6.37309">
        <ele>290</ele>
        <time>2023-11-10T14:52:46Z</time>
      </trkpt>
      <trkpt lat="43.50047" lon="6.37304">
        <ele>289</ele>
        <time>2023-11-10T14:52:52Z</time>
      </trkpt>
      <trkpt lat="43.50047" lon="6.37298">
        <ele>288</ele>
        <time>2023-11-10T14:52:56Z</time>
      </trkpt>
      <trkpt lat="43.50047" lon="6.37292">
        <ele>287</ele>
        <time>2023-11-10T14:53:08Z</time>
      </trkpt>
      <trkpt lat="43.50051" lon="6.3729">
        <ele>286</ele>
        <time>2023-11-10T14:53:39Z</time>
      </trkpt>
      <trkpt lat="43.50056" lon="6.37294">
        <ele>285</ele>
        <time>2023-11-10T14:53:44Z</time>
      </trkpt>
      <trkpt lat="43.5006" lon="6.37298">
        <ele>283</ele>
        <time>2023-11-10T14:53:48Z</time>
      </trkpt>
      <trkpt lat="43.50065" lon="6.37305">
        <ele>281</ele>
        <time>2023-11-10T14:53:52Z</time>
      </trkpt>
      <trkpt lat="43.50069" lon="6.37313">
        <ele>280</ele>
        <time>2023-11-10T14:53:56Z</time>
      </trkpt>
      <trkpt lat="43.50072" lon="6.37317">
        <ele>280</ele>
        <time>2023-11-10T14:53:59Z</time>
      </trkpt>
      <trkpt lat="43.50075" lon="6.37318">
        <ele>281</ele>
        <time>2023-11-10T14:57:58Z</time>
      </trkpt>
      <trkpt lat="43.50077" lon="6.37313">
        <ele>281</ele>
        <time>2023-11-10T14:58:11Z</time>
      </trkpt>
      <trkpt lat="43.50079" lon="6.37293">
        <ele>276</ele>
        <time>2023-11-10T14:58:22Z</time>
      </trkpt>
      <trkpt lat="43.50083" lon="6.3727">
        <ele>276</ele>
        <time>2023-11-10T14:58:37Z</time>
      </trkpt>
      <trkpt lat="43.50083" lon="6.37259">
        <ele>277</ele>
        <time>2023-11-10T14:58:44Z</time>
      </trkpt>
      <trkpt lat="43.50084" lon="6.37253">
        <ele>277</ele>
        <time>2023-11-10T14:58:51Z</time>
      </trkpt>
      <trkpt lat="43.50083" lon="6.37236">
        <ele>278</ele>
        <time>2023-11-10T14:59:03Z</time>
      </trkpt>
      <trkpt lat="43.50085" lon="6.37238">
        <ele>278</ele>
        <time>2023-11-10T15:00:20Z</time>
      </trkpt>
      <trkpt lat="43.5009" lon="6.37237">
        <ele>278</ele>
        <time>2023-11-10T15:05:04Z</time>
      </trkpt>
      <trkpt lat="43.50093" lon="6.37235">
        <ele>273</ele>
        <time>2023-11-10T15:06:38Z</time>
      </trkpt>
      <trkpt lat="43.50096" lon="6.3724">
        <ele>270</ele>
        <time>2023-11-10T15:06:41Z</time>
      </trkpt>
      <trkpt lat="43.50099" lon="6.37245">
        <ele>266</ele>
        <time>2023-11-10T15:06:44Z</time>
      </trkpt>
      <trkpt lat="43.50099" lon="6.37251">
        <ele>264</ele>
        <time>2023-11-10T15:06:52Z</time>
      </trkpt>
      <trkpt lat="43.50099" lon="6.3725">
        <ele>265</ele>
        <time>2023-11-10T15:07:19Z</time>
      </trkpt>
      <trkpt lat="43.50101" lon="6.37238">
        <ele>268</ele>
        <time>2023-11-10T15:07:29Z</time>
      </trkpt>
      <trkpt lat="43.50099" lon="6.37231">
        <ele>270</ele>
        <time>2023-11-10T15:07:33Z</time>
      </trkpt>
      <trkpt lat="43.50095" lon="6.37228">
        <ele>270</ele>
        <time>2023-11-10T15:07:42Z</time>
      </trkpt>
      <trkpt lat="43.5009" lon="6.3723">
        <ele>271</ele>
        <time>2023-11-10T15:07:46Z</time>
      </trkpt>
      <trkpt lat="43.50085" lon="6.37231">
        <ele>271</ele>
        <time>2023-11-10T15:07:55Z</time>
      </trkpt>
      <trkpt lat="43.50081" lon="6.37234">
        <ele>272</ele>
        <time>2023-11-10T15:08:07Z</time>
      </trkpt>
      <trkpt lat="43.50077" lon="6.37235">
        <ele>272</ele>
        <time>2023-11-10T15:08:19Z</time>
      </trkpt>
      <trkpt lat="43.50058" lon="6.37239">
        <ele>274</ele>
        <time>2023-11-10T15:08:41Z</time>
      </trkpt>
      <trkpt lat="43.50053" lon="6.37239">
        <ele>275</ele>
        <time>2023-11-10T15:08:53Z</time>
      </trkpt>
      <trkpt lat="43.50049" lon="6.37237">
        <ele>277</ele>
        <time>2023-11-10T15:09:06Z</time>
      </trkpt>
      <trkpt lat="43.50047" lon="6.37231">
        <ele>278</ele>
        <time>2023-11-10T15:09:15Z</time>
      </trkpt>
      <trkpt lat="43.50048" lon="6.37218">
        <ele>282</ele>
        <time>2023-11-10T15:09:23Z</time>
      </trkpt>
      <trkpt lat="43.5004" lon="6.37169">
        <ele>285</ele>
        <time>2023-11-10T15:09:55Z</time>
      </trkpt>
      <trkpt lat="43.5004" lon="6.37163">
        <ele>286</ele>
        <time>2023-11-10T15:09:57Z</time>
      </trkpt>
      <trkpt lat="43.5004" lon="6.37156">
        <ele>287</ele>
        <time>2023-11-10T15:10:03Z</time>
      </trkpt>
      <trkpt lat="43.50041" lon="6.3711">
        <ele>294</ele>
        <time>2023-11-10T15:10:43Z</time>
      </trkpt>
      <trkpt lat="43.50037" lon="6.37084">
        <ele>292</ele>
        <time>2023-11-10T15:10:55Z</time>
      </trkpt>
      <trkpt lat="43.50036" lon="6.37076">
        <ele>292</ele>
        <time>2023-11-10T15:10:59Z</time>
      </trkpt>
      <trkpt lat="43.50034" lon="6.37063">
        <ele>292</ele>
        <time>2023-11-10T15:11:06Z</time>
      </trkpt>
      <trkpt lat="43.50033" lon="6.37057">
        <ele>292</ele>
        <time>2023-11-10T15:11:13Z</time>
      </trkpt>
      <trkpt lat="43.50029" lon="6.37053">
        <ele>292</ele>
        <time>2023-11-10T15:11:24Z</time>
      </trkpt>
      <trkpt lat="43.50025" lon="6.37049">
        <ele>292</ele>
        <time>2023-11-10T15:11:33Z</time>
      </trkpt>
      <trkpt lat="43.50024" lon="6.37042">
        <ele>292</ele>
        <time>2023-11-10T15:11:39Z</time>
      </trkpt>
      <trkpt lat="43.50021" lon="6.37035">
        <ele>292</ele>
        <time>2023-11-10T15:11:48Z</time>
      </trkpt>
      <trkpt lat="43.50007" lon="6.37028">
        <ele>292</ele>
        <time>2023-11-10T15:11:59Z</time>
      </trkpt>
      <trkpt lat="43.49996" lon="6.37016">
        <ele>291</ele>
        <time>2023-11-10T15:12:19Z</time>
      </trkpt>
      <trkpt lat="43.49987" lon="6.37011">
        <ele>290</ele>
        <time>2023-11-10T15:12:32Z</time>
      </trkpt>
      <trkpt lat="43.49982" lon="6.3701">
        <ele>291</ele>
        <time>2023-11-10T15:12:41Z</time>
      </trkpt>
      <trkpt lat="43.49978" lon="6.37009">
        <ele>291</ele>
        <time>2023-11-10T15:12:47Z</time>
      </trkpt>
      <trkpt lat="43.49974" lon="6.37009">
        <ele>291</ele>
        <time>2023-11-10T15:12:54Z</time>
      </trkpt>
      <trkpt lat="43.49969" lon="6.37008">
        <ele>291</ele>
        <time>2023-11-10T15:13:07Z</time>
      </trkpt>
      <trkpt lat="43.49967" lon="6.37002">
        <ele>291</ele>
        <time>2023-11-10T15:13:16Z</time>
      </trkpt>
      <trkpt lat="43.49939" lon="6.36977">
        <ele>292</ele>
        <time>2023-11-10T15:13:48Z</time>
      </trkpt>
      <trkpt lat="43.4993" lon="6.36977">
        <ele>292</ele>
        <time>2023-11-10T15:14:01Z</time>
      </trkpt>
      <trkpt lat="43.49925" lon="6.36976">
        <ele>292</ele>
        <time>2023-11-10T15:14:16Z</time>
      </trkpt>
      <trkpt lat="43.49911" lon="6.36977">
        <ele>291</ele>
        <time>2023-11-10T15:14:56Z</time>
      </trkpt>
      <trkpt lat="43.49907" lon="6.36975">
        <ele>291</ele>
        <time>2023-11-10T15:15:06Z</time>
      </trkpt>
      <trkpt lat="43.49903" lon="6.36979">
        <ele>291</ele>
        <time>2023-11-10T15:15:22Z</time>
      </trkpt>
      <trkpt lat="43.49891" lon="6.36988">
        <ele>290</ele>
        <time>2023-11-10T15:15:42Z</time>
      </trkpt>
      <trkpt lat="43.4989" lon="6.36994">
        <ele>290</ele>
        <time>2023-11-10T15:15:53Z</time>
      </trkpt>
      <trkpt lat="43.49886" lon="6.36999">
        <ele>291</ele>
        <time>2023-11-10T15:16:11Z</time>
      </trkpt>
      <trkpt lat="43.49878" lon="6.37002">
        <ele>293</ele>
        <time>2023-11-10T15:16:27Z</time>
      </trkpt>
      <trkpt lat="43.49867" lon="6.37004">
        <ele>294</ele>
        <time>2023-11-10T15:16:44Z</time>
      </trkpt>
      <trkpt lat="43.49834" lon="6.37009">
        <ele>295</ele>
        <time>2023-11-10T15:17:04Z</time>
      </trkpt>
      <trkpt lat="43.49831" lon="6.37012">
        <ele>296</ele>
        <time>2023-11-10T15:17:13Z</time>
      </trkpt>
      <trkpt lat="43.49824" lon="6.37012">
        <ele>295</ele>
        <time>2023-11-10T15:17:21Z</time>
      </trkpt>
      <trkpt lat="43.49814" lon="6.37014">
        <ele>295</ele>
        <time>2023-11-10T15:17:31Z</time>
      </trkpt>
      <trkpt lat="43.49795" lon="6.37019">
        <ele>291</ele>
        <time>2023-11-10T15:17:53Z</time>
      </trkpt>
      <trkpt lat="43.49786" lon="6.37023">
        <ele>292</ele>
        <time>2023-11-10T15:18:05Z</time>
      </trkpt>
      <trkpt lat="43.49781" lon="6.37024">
        <ele>293</ele>
        <time>2023-11-10T15:18:19Z</time>
      </trkpt>
      <trkpt lat="43.49772" lon="6.37025">
        <ele>292</ele>
        <time>2023-11-10T15:18:34Z</time>
      </trkpt>
      <trkpt lat="43.49755" lon="6.37029">
        <ele>291</ele>
        <time>2023-11-10T15:19:00Z</time>
      </trkpt>
      <trkpt lat="43.49743" lon="6.37037">
        <ele>290</ele>
        <time>2023-11-10T15:19:14Z</time>
      </trkpt>
      <trkpt lat="43.49736" lon="6.37046">
        <ele>289</ele>
        <time>2023-11-10T15:19:24Z</time>
      </trkpt>
      <trkpt lat="43.49729" lon="6.37054">
        <ele>286</ele>
        <time>2023-11-10T15:19:29Z</time>
      </trkpt>
      <trkpt lat="43.49725" lon="6.37058">
        <ele>285</ele>
        <time>2023-11-10T15:19:54Z</time>
      </trkpt>
      <trkpt lat="43.49722" lon="6.37064">
        <ele>285</ele>
        <time>2023-11-10T15:21:31Z</time>
      </trkpt>
      <trkpt lat="43.49719" lon="6.37069">
        <ele>284</ele>
        <time>2023-11-10T15:21:37Z</time>
      </trkpt>
      <trkpt lat="43.49705" lon="6.37097">
        <ele>287</ele>
        <time>2023-11-10T15:22:11Z</time>
      </trkpt>
      <trkpt lat="43.49696" lon="6.37117">
        <ele>287</ele>
        <time>2023-11-10T15:22:35Z</time>
      </trkpt>
      <trkpt lat="43.49694" lon="6.37157">
        <ele>287</ele>
        <time>2023-11-10T15:23:04Z</time>
      </trkpt>
      <trkpt lat="43.49695" lon="6.37164">
        <ele>288</ele>
        <time>2023-11-10T15:23:11Z</time>
      </trkpt>
      <trkpt lat="43.49696" lon="6.37171">
        <ele>287</ele>
        <time>2023-11-10T15:23:20Z</time>
      </trkpt>
      <trkpt lat="43.49695" lon="6.37188">
        <ele>286</ele>
        <time>2023-11-10T15:23:36Z</time>
      </trkpt>
      <trkpt lat="43.49692" lon="6.37201">
        <ele>286</ele>
        <time>2023-11-10T15:23:47Z</time>
      </trkpt>
      <trkpt lat="43.49679" lon="6.37209">
        <ele>286</ele>
        <time>2023-11-10T15:24:13Z</time>
      </trkpt>
      <trkpt lat="43.4967" lon="6.37216">
        <ele>287</ele>
        <time>2023-11-10T15:24:33Z</time>
      </trkpt>
      <trkpt lat="43.49646" lon="6.37235">
        <ele>286</ele>
        <time>2023-11-10T15:25:05Z</time>
      </trkpt>
      <trkpt lat="43.49637" lon="6.37247">
        <ele>285</ele>
        <time>2023-11-10T15:25:21Z</time>
      </trkpt>
      <trkpt lat="43.49623" lon="6.37267">
        <ele>282</ele>
        <time>2023-11-10T15:25:35Z</time>
      </trkpt>
      <trkpt lat="43.49621" lon="6.37273">
        <ele>280</ele>
        <time>2023-11-10T15:25:44Z</time>
      </trkpt>
      <trkpt lat="43.49617" lon="6.37302">
        <ele>277</ele>
        <time>2023-11-10T15:26:15Z</time>
      </trkpt>
      <trkpt lat="43.49618" lon="6.37309">
        <ele>277</ele>
        <time>2023-11-10T15:26:21Z</time>
      </trkpt>
      <trkpt lat="43.49617" lon="6.37324">
        <ele>277</ele>
        <time>2023-11-10T15:26:30Z</time>
      </trkpt>
      <trkpt lat="43.49616" lon="6.37333">
        <ele>278</ele>
        <time>2023-11-10T15:26:37Z</time>
      </trkpt>
      <trkpt lat="43.49617" lon="6.37369">
        <ele>279</ele>
        <time>2023-11-10T15:27:04Z</time>
      </trkpt>
      <trkpt lat="43.49615" lon="6.37381">
        <ele>274</ele>
        <time>2023-11-10T15:27:24Z</time>
      </trkpt>
      <trkpt lat="43.4963" lon="6.37401">
        <ele>275</ele>
        <time>2023-11-10T15:27:54Z</time>
      </trkpt>
      <trkpt lat="43.49634" lon="6.37406">
        <ele>276</ele>
        <time>2023-11-10T15:27:58Z</time>
      </trkpt>
      <trkpt lat="43.49635" lon="6.37412">
        <ele>277</ele>
        <time>2023-11-10T15:28:09Z</time>
      </trkpt>
      <trkpt lat="43.49633" lon="6.37418">
        <ele>276</ele>
        <time>2023-11-10T15:28:56Z</time>
      </trkpt>
      <trkpt lat="43.49637" lon="6.37422">
        <ele>276</ele>
        <time>2023-11-10T15:29:26Z</time>
      </trkpt>
      <trkpt lat="43.4965" lon="6.37434">
        <ele>279</ele>
        <time>2023-11-10T15:29:49Z</time>
      </trkpt>
      <trkpt lat="43.49662" lon="6.37444">
        <ele>281</ele>
        <time>2023-11-10T15:30:04Z</time>
      </trkpt>
      <trkpt lat="43.49674" lon="6.37454">
        <ele>281</ele>
        <time>2023-11-10T15:32:03Z</time>
      </trkpt>
      <trkpt lat="43.49682" lon="6.37467">
        <ele>283</ele>
        <time>2023-11-10T15:32:16Z</time>
      </trkpt>
      <trkpt lat="43.49685" lon="6.37473">
        <ele>286</ele>
        <time>2023-11-10T15:32:24Z</time>
      </trkpt>
      <trkpt lat="43.49689" lon="6.3748">
        <ele>289</ele>
        <time>2023-11-10T15:32:35Z</time>
      </trkpt>
      <trkpt lat="43.49694" lon="6.3749">
        <ele>289</ele>
        <time>2023-11-10T15:32:44Z</time>
      </trkpt>
      <trkpt lat="43.49695" lon="6.37496">
        <ele>289</ele>
        <time>2023-11-10T15:32:47Z</time>
      </trkpt>
      <trkpt lat="43.49697" lon="6.37505">
        <ele>290</ele>
        <time>2023-11-10T15:32:52Z</time>
      </trkpt>
      <trkpt lat="43.497" lon="6.37517">
        <ele>292</ele>
        <time>2023-11-10T15:32:58Z</time>
      </trkpt>
      <trkpt lat="43.49702" lon="6.37528">
        <ele>292</ele>
        <time>2023-11-10T15:33:07Z</time>
      </trkpt>
      <trkpt lat="43.49704" lon="6.37537">
        <ele>293</ele>
        <time>2023-11-10T15:33:25Z</time>
      </trkpt>
      <trkpt lat="43.49708" lon="6.37538">
        <ele>294</ele>
        <time>2023-11-10T15:33:35Z</time>
      </trkpt>
      <trkpt lat="43.49712" lon="6.37535">
        <ele>294</ele>
        <time>2023-11-10T15:33:40Z</time>
      </trkpt>
      <trkpt lat="43.49715" lon="6.3753">
        <ele>298</ele>
        <time>2023-11-10T15:33:48Z</time>
      </trkpt>
      <trkpt lat="43.4972" lon="6.37529">
        <ele>298</ele>
        <time>2023-11-10T15:33:57Z</time>
      </trkpt>
      <trkpt lat="43.49723" lon="6.37542">
        <ele>299</ele>
        <time>2023-11-10T15:34:15Z</time>
      </trkpt>
      <trkpt lat="43.49727" lon="6.37546">
        <ele>300</ele>
        <time>2023-11-10T15:36:16Z</time>
      </trkpt>
      <trkpt lat="43.49731" lon="6.37549">
        <ele>299</ele>
        <time>2023-11-10T15:37:08Z</time>
      </trkpt>
      <trkpt lat="43.49736" lon="6.37548">
        <ele>301</ele>
        <time>2023-11-10T15:37:28Z</time>
      </trkpt>
      <trkpt lat="43.49741" lon="6.37545">
        <ele>302</ele>
        <time>2023-11-10T15:37:38Z</time>
      </trkpt>
      <trkpt lat="43.49743" lon="6.3754">
        <ele>303</ele>
        <time>2023-11-10T15:37:47Z</time>
      </trkpt>
      <trkpt lat="43.49744" lon="6.37533">
        <ele>304</ele>
        <time>2023-11-10T15:37:55Z</time>
      </trkpt>
      <trkpt lat="43.49744" lon="6.37526">
        <ele>304</ele>
        <time>2023-11-10T15:38:01Z</time>
      </trkpt>
      <trkpt lat="43.49743" lon="6.3751">
        <ele>305</ele>
        <time>2023-11-10T15:38:11Z</time>
      </trkpt>
      <trkpt lat="43.49743" lon="6.37504">
        <ele>305</ele>
        <time>2023-11-10T15:38:17Z</time>
      </trkpt>
      <trkpt lat="43.49743" lon="6.37498">
        <ele>304</ele>
        <time>2023-11-10T15:38:28Z</time>
      </trkpt>
      <trkpt lat="43.4974" lon="6.37492">
        <ele>304</ele>
        <time>2023-11-10T15:38:37Z</time>
      </trkpt>
      <trkpt lat="43.49727" lon="6.37467">
        <ele>303</ele>
        <time>2023-11-10T15:39:02Z</time>
      </trkpt>
      <trkpt lat="43.49724" lon="6.37462">
        <ele>303</ele>
        <time>2023-11-10T15:39:11Z</time>
      </trkpt>
      <trkpt lat="43.49717" lon="6.37446">
        <ele>304</ele>
        <time>2023-11-10T15:39:37Z</time>
      </trkpt>
      <trkpt lat="43.49704" lon="6.37435">
        <ele>303</ele>
        <time>2023-11-10T15:40:07Z</time>
      </trkpt>
      <trkpt lat="43.49692" lon="6.37431">
        <ele>302</ele>
        <time>2023-11-10T15:40:25Z</time>
      </trkpt>
      <trkpt lat="43.49687" lon="6.3743">
        <ele>299</ele>
        <time>2023-11-10T15:40:29Z</time>
      </trkpt>
      <trkpt lat="43.49683" lon="6.37429">
        <ele>299</ele>
        <time>2023-11-10T15:40:46Z</time>
      </trkpt>
      <trkpt lat="43.49679" lon="6.37422">
        <ele>299</ele>
        <time>2023-11-10T15:40:53Z</time>
      </trkpt>
      <trkpt lat="43.49661" lon="6.37394">
        <ele>290</ele>
        <time>2023-11-10T15:41:20Z</time>
      </trkpt>
      <trkpt lat="43.49653" lon="6.37384">
        <ele>288</ele>
        <time>2023-11-10T15:41:54Z</time>
      </trkpt>
      <trkpt lat="43.49633" lon="6.37347">
        <ele>284</ele>
        <time>2023-11-10T15:42:28Z</time>
      </trkpt>
      <trkpt lat="43.49614" lon="6.37307">
        <ele>279</ele>
        <time>2023-11-10T15:43:02Z</time>
      </trkpt>
      <trkpt lat="43.49609" lon="6.37289">
        <ele>280</ele>
        <time>2023-11-10T15:43:22Z</time>
      </trkpt>
      <trkpt lat="43.49601" lon="6.37277">
        <ele>278</ele>
        <time>2023-11-10T15:43:34Z</time>
      </trkpt>
      <trkpt lat="43.49599" lon="6.37272">
        <ele>277</ele>
        <time>2023-11-10T15:43:39Z</time>
      </trkpt>
      <trkpt lat="43.49584" lon="6.37243">
        <ele>272</ele>
        <time>2023-11-10T15:44:10Z</time>
      </trkpt>
      <trkpt lat="43.49579" lon="6.37233">
        <ele>269</ele>
        <time>2023-11-10T15:44:18Z</time>
      </trkpt>
      <trkpt lat="43.49577" lon="6.37227">
        <ele>269</ele>
        <time>2023-11-10T15:44:23Z</time>
      </trkpt>
      <trkpt lat="43.49571" lon="6.3721">
        <ele>267</ele>
        <time>2023-11-10T15:44:42Z</time>
      </trkpt>
      <trkpt lat="43.49572" lon="6.37203">
        <ele>265</ele>
        <time>2023-11-10T15:44:49Z</time>
      </trkpt>
      <trkpt lat="43.49575" lon="6.37189">
        <ele>264</ele>
        <time>2023-11-10T15:45:05Z</time>
      </trkpt>
      <trkpt lat="43.49576" lon="6.37183">
        <ele>264</ele>
        <time>2023-11-10T15:45:10Z</time>
      </trkpt>
      <trkpt lat="43.49578" lon="6.37176">
        <ele>264</ele>
        <time>2023-11-10T15:45:19Z</time>
      </trkpt>
      <trkpt lat="43.49571" lon="6.37141">
        <ele>266</ele>
        <time>2023-11-10T15:45:41Z</time>
      </trkpt>
      <trkpt lat="43.49569" lon="6.37135">
        <ele>266</ele>
        <time>2023-11-10T15:45:48Z</time>
      </trkpt>
      <trkpt lat="43.49584" lon="6.37088">
        <ele>261</ele>
        <time>2023-11-10T15:46:16Z</time>
      </trkpt>
      <trkpt lat="43.49588" lon="6.37081">
        <ele>261</ele>
        <time>2023-11-10T15:46:21Z</time>
      </trkpt>
      <trkpt lat="43.49595" lon="6.37058">
        <ele>261</ele>
        <time>2023-11-10T15:46:34Z</time>
      </trkpt>
      <trkpt lat="43.49599" lon="6.37046">
        <ele>260</ele>
        <time>2023-11-10T15:46:42Z</time>
      </trkpt>
      <trkpt lat="43.49597" lon="6.37048">
        <ele>259</ele>
        <time>2023-11-10T15:47:42Z</time>
      </trkpt>
      <trkpt lat="43.49593" lon="6.3705">
        <ele>259</ele>
        <time>2023-11-10T15:49:26Z</time>
      </trkpt>
      <trkpt lat="43.4959" lon="6.37055">
        <ele>260</ele>
        <time>2023-11-10T15:49:50Z</time>
      </trkpt>
      <trkpt lat="43.49579" lon="6.37065">
        <ele>260</ele>
        <time>2023-11-10T15:50:09Z</time>
      </trkpt>
      <trkpt lat="43.49574" lon="6.37067">
        <ele>258</ele>
        <time>2023-11-10T15:50:14Z</time>
      </trkpt>
      <trkpt lat="43.49571" lon="6.37073">
        <ele>258</ele>
        <time>2023-11-10T15:50:18Z</time>
      </trkpt>
      <trkpt lat="43.49546" lon="6.37116">
        <ele>252</ele>
        <time>2023-11-10T15:50:51Z</time>
      </trkpt>
      <trkpt lat="43.49543" lon="6.3712">
        <ele>252</ele>
        <time>2023-11-10T15:50:55Z</time>
      </trkpt>
      <trkpt lat="43.49539" lon="6.37124">
        <ele>253</ele>
        <time>2023-11-10T15:51:00Z</time>
      </trkpt>
      <trkpt lat="43.49536" lon="6.37127">
        <ele>254</ele>
        <time>2023-11-10T15:51:05Z</time>
      </trkpt>
      <trkpt lat="43.49532" lon="6.37132">
        <ele>254</ele>
        <time>2023-11-10T15:51:11Z</time>
      </trkpt>
      <trkpt lat="43.49526" lon="6.37144">
        <ele>254</ele>
        <time>2023-11-10T15:51:20Z</time>
      </trkpt>
      <trkpt lat="43.49523" lon="6.37149">
        <ele>252</ele>
        <time>2023-11-10T15:51:29Z</time>
      </trkpt>
      <trkpt lat="43.4952" lon="6.37154">
        <ele>250</ele>
        <time>2023-11-10T15:51:35Z</time>
      </trkpt>
      <trkpt lat="43.49513" lon="6.37175">
        <ele>248</ele>
        <time>2023-11-10T15:51:54Z</time>
      </trkpt>
      <trkpt lat="43.49512" lon="6.37182">
        <ele>247</ele>
        <time>2023-11-10T15:52:02Z</time>
      </trkpt>
      <trkpt lat="43.4951" lon="6.3719">
        <ele>247</ele>
        <time>2023-11-10T15:52:07Z</time>
      </trkpt>
      <trkpt lat="43.49505" lon="6.37196">
        <ele>246</ele>
        <time>2023-11-10T15:52:12Z</time>
      </trkpt>
      <trkpt lat="43.495" lon="6.37196">
        <ele>244</ele>
        <time>2023-11-10T15:52:17Z</time>
      </trkpt>
      <trkpt lat="43.495" lon="6.37186">
        <ele>243</ele>
        <time>2023-11-10T15:52:24Z</time>
      </trkpt>
      <trkpt lat="43.49499" lon="6.37179">
        <ele>242</ele>
        <time>2023-11-10T15:52:32Z</time>
      </trkpt>
      <trkpt lat="43.49501" lon="6.37173">
        <ele>242</ele>
        <time>2023-11-10T15:52:36Z</time>
      </trkpt>
      <trkpt lat="43.49503" lon="6.37157">
        <ele>239</ele>
        <time>2023-11-10T15:52:48Z</time>
      </trkpt>
      <trkpt lat="43.49502" lon="6.37147">
        <ele>237</ele>
        <time>2023-11-10T15:52:53Z</time>
      </trkpt>
      <trkpt lat="43.49502" lon="6.37141">
        <ele>236</ele>
        <time>2023-11-10T15:52:57Z</time>
      </trkpt>
      <trkpt lat="43.49485" lon="6.3714">
        <ele>234</ele>
        <time>2023-11-10T15:53:22Z</time>
      </trkpt>
      <trkpt lat="43.49478" lon="6.37129">
        <ele>232</ele>
        <time>2023-11-10T15:53:30Z</time>
      </trkpt>
      <trkpt lat="43.49469" lon="6.37136">
        <ele>232</ele>
        <time>2023-11-10T15:53:39Z</time>
      </trkpt>
      <trkpt lat="43.49464" lon="6.3714">
        <ele>232</ele>
        <time>2023-11-10T15:53:44Z</time>
      </trkpt>
      <trkpt lat="43.4946" lon="6.37138">
        <ele>232</ele>
        <time>2023-11-10T15:53:48Z</time>
      </trkpt>
      <trkpt lat="43.4946" lon="6.37131">
        <ele>230</ele>
        <time>2023-11-10T15:53:53Z</time>
      </trkpt>
      <trkpt lat="43.49461" lon="6.37124">
        <ele>227</ele>
        <time>2023-11-10T15:54:00Z</time>
      </trkpt>
      <trkpt lat="43.49459" lon="6.37118">
        <ele>226</ele>
        <time>2023-11-10T15:54:06Z</time>
      </trkpt>
      <trkpt lat="43.49455" lon="6.37112">
        <ele>226</ele>
        <time>2023-11-10T15:54:12Z</time>
      </trkpt>
      <trkpt lat="43.49454" lon="6.37106">
        <ele>224</ele>
        <time>2023-11-10T15:54:22Z</time>
      </trkpt>
      <trkpt lat="43.49449" lon="6.37107">
        <ele>224</ele>
        <time>2023-11-10T15:54:31Z</time>
      </trkpt>
      <trkpt lat="43.49445" lon="6.3711">
        <ele>224</ele>
        <time>2023-11-10T15:54:34Z</time>
      </trkpt>
      <trkpt lat="43.49444" lon="6.37116">
        <ele>224</ele>
        <time>2023-11-10T15:54:38Z</time>
      </trkpt>
      <trkpt lat="43.4944" lon="6.37114">
        <ele>223</ele>
        <time>2023-11-10T15:55:03Z</time>
      </trkpt>
      <trkpt lat="43.49437" lon="6.37108">
        <ele>222</ele>
        <time>2023-11-10T15:55:08Z</time>
      </trkpt>
      <trkpt lat="43.4943" lon="6.37083">
        <ele>212</ele>
        <time>2023-11-10T15:55:28Z</time>
      </trkpt>
      <trkpt lat="43.4943" lon="6.37077">
        <ele>212</ele>
        <time>2023-11-10T15:55:32Z</time>
      </trkpt>
      <trkpt lat="43.49428" lon="6.37072">
        <ele>212</ele>
        <time>2023-11-10T15:55:37Z</time>
      </trkpt>
      <trkpt lat="43.49422" lon="6.37069">
        <ele>212</ele>
        <time>2023-11-10T15:55:44Z</time>
      </trkpt>
      <trkpt lat="43.49417" lon="6.37069">
        <ele>213</ele>
        <time>2023-11-10T15:55:48Z</time>
      </trkpt>
      <trkpt lat="43.49412" lon="6.37067">
        <ele>213</ele>
        <time>2023-11-10T15:55:52Z</time>
      </trkpt>
      <trkpt lat="43.49409" lon="6.37062">
        <ele>214</ele>
        <time>2023-11-10T15:55:57Z</time>
      </trkpt>
      <trkpt lat="43.49414" lon="6.37034">
        <ele>213</ele>
        <time>2023-11-10T15:56:19Z</time>
      </trkpt>
      <trkpt lat="43.49418" lon="6.37022">
        <ele>211</ele>
        <time>2023-11-10T15:56:26Z</time>
      </trkpt>
      <trkpt lat="43.49422" lon="6.3701">
        <ele>212</ele>
        <time>2023-11-10T15:56:34Z</time>
      </trkpt>
      <trkpt lat="43.49424" lon="6.37003">
        <ele>213</ele>
        <time>2023-11-10T15:56:38Z</time>
      </trkpt>
      <trkpt lat="43.49434" lon="6.36971">
        <ele>212</ele>
        <time>2023-11-10T15:56:58Z</time>
      </trkpt>
      <trkpt lat="43.49437" lon="6.36967">
        <ele>212</ele>
        <time>2023-11-10T15:57:02Z</time>
      </trkpt>
      <trkpt lat="43.49442" lon="6.36954">
        <ele>211</ele>
        <time>2023-11-10T15:57:12Z</time>
      </trkpt>
      <trkpt lat="43.49445" lon="6.36947">
        <ele>210</ele>
        <time>2023-11-10T15:57:18Z</time>
      </trkpt>
      <trkpt lat="43.49449" lon="6.36943">
        <ele>211</ele>
        <time>2023-11-10T15:57:25Z</time>
      </trkpt>
      <trkpt lat="43.49464" lon="6.36897">
        <ele>214</ele>
        <time>2023-11-10T15:57:58Z</time>
      </trkpt>
      <trkpt lat="43.4947" lon="6.36879">
        <ele>214</ele>
        <time>2023-11-10T15:58:11Z</time>
      </trkpt>
      <trkpt lat="43.49469" lon="6.3687">
        <ele>213</ele>
        <time>2023-11-10T15:58:17Z</time>
      </trkpt>
      <trkpt lat="43.49464" lon="6.36867">
        <ele>211</ele>
        <time>2023-11-10T15:58:21Z</time>
      </trkpt>
      <trkpt lat="43.4946" lon="6.36866">
        <ele>210</ele>
        <time>2023-11-10T15:58:24Z</time>
      </trkpt>
      <trkpt lat="43.4945" lon="6.36868">
        <ele>208</ele>
        <time>2023-11-10T15:58:31Z</time>
      </trkpt>
      <trkpt lat="43.49434" lon="6.36864">
        <ele>207</ele>
        <time>2023-11-10T15:58:45Z</time>
      </trkpt>
      <trkpt lat="43.49428" lon="6.36864">
        <ele>206</ele>
        <time>2023-11-10T15:58:50Z</time>
      </trkpt>
      <trkpt lat="43.49413" lon="6.36862">
        <ele>202</ele>
        <time>2023-11-10T15:59:05Z</time>
      </trkpt>
      <trkpt lat="43.49408" lon="6.36858">
        <ele>202</ele>
        <time>2023-11-10T15:59:13Z</time>
      </trkpt>
      <trkpt lat="43.49387" lon="6.36856">
        <ele>199</ele>
        <time>2023-11-10T15:59:31Z</time>
      </trkpt>
      <trkpt lat="43.49381" lon="6.36854">
        <ele>200</ele>
        <time>2023-11-10T15:59:36Z</time>
      </trkpt>
      <trkpt lat="43.49377" lon="6.36851">
        <ele>199</ele>
        <time>2023-11-10T15:59:40Z</time>
      </trkpt>
      <trkpt lat="43.49369" lon="6.3685">
        <ele>197</ele>
        <time>2023-11-10T15:59:48Z</time>
      </trkpt>
      <trkpt lat="43.49364" lon="6.36851">
        <ele>197</ele>
        <time>2023-11-10T15:59:52Z</time>
      </trkpt>
      <trkpt lat="43.49359" lon="6.3685">
        <ele>197</ele>
        <time>2023-11-10T15:59:56Z</time>
      </trkpt>
      <trkpt lat="43.49354" lon="6.36849">
        <ele>197</ele>
        <time>2023-11-10T16:00:00Z</time>
      </trkpt>
      <trkpt lat="43.49346" lon="6.36843">
        <ele>196</ele>
        <time>2023-11-10T16:00:08Z</time>
      </trkpt>
      <trkpt lat="43.49344" lon="6.36839">
        <ele>196</ele>
        <time>2023-11-10T16:00:12Z</time>
      </trkpt>
      <trkpt lat="43.49341" lon="6.36833">
        <ele>196</ele>
        <time>2023-11-10T16:00:16Z</time>
      </trkpt>
      <trkpt lat="43.49341" lon="6.36827">
        <ele>196</ele>
        <time>2023-11-10T16:00:20Z</time>
      </trkpt>
      <trkpt lat="43.49338" lon="6.36824">
        <ele>198</ele>
        <time>2023-11-10T16:00:34Z</time>
      </trkpt>
      <trkpt lat="43.49334" lon="6.3682">
        <ele>197</ele>
        <time>2023-11-10T16:00:39Z</time>
      </trkpt>
      <trkpt lat="43.49331" lon="6.36812">
        <ele>194</ele>
        <time>2023-11-10T16:00:49Z</time>
      </trkpt>
      <trkpt lat="43.49331" lon="6.36806">
        <ele>193</ele>
        <time>2023-11-10T16:00:56Z</time>
      </trkpt>
      <trkpt lat="43.49328" lon="6.36803">
        <ele>193</ele>
        <time>2023-11-10T16:01:01Z</time>
      </trkpt>
      <trkpt lat="43.49324" lon="6.36799">
        <ele>193</ele>
        <time>2023-11-10T16:01:05Z</time>
      </trkpt>
      <trkpt lat="43.4932" lon="6.36798">
        <ele>192</ele>
        <time>2023-11-10T16:01:09Z</time>
      </trkpt>
      <trkpt lat="43.49303" lon="6.36809">
        <ele>193</ele>
        <time>2023-11-10T16:01:27Z</time>
      </trkpt>
      <trkpt lat="43.49297" lon="6.36808">
        <ele>193</ele>
        <time>2023-11-10T16:01:33Z</time>
      </trkpt>
      <trkpt lat="43.49292" lon="6.36809">
        <ele>194</ele>
        <time>2023-11-10T16:01:39Z</time>
      </trkpt>
      <trkpt lat="43.49288" lon="6.3681">
        <ele>194</ele>
        <time>2023-11-10T16:01:44Z</time>
      </trkpt>
      <trkpt lat="43.49265" lon="6.36813">
        <ele>196.3</ele>
        <time>2023-11-10T16:02:07Z</time>
      </trkpt>
    </trkseg>
  </trk>
</gpx>